createdAt,value
2023-04-26T00:00:49.192Z,97826.44
2023-04-26T00:03:19.312Z,97821.00
2023-04-26T00:05:48.646Z,97822.03
2023-04-26T00:08:15.723Z,97822.69
2023-04-26T00:10:43.406Z,97827.41
2023-04-26T00:13:10.359Z,97830.50
2023-04-26T00:15:40.127Z,97823.78
2023-04-26T00:18:07.434Z,97820.56
2023-04-26T00:20:35.092Z,97821.81
2023-04-26T00:23:01.543Z,97822.28
2023-04-26T00:25:28.157Z,97821.69
2023-04-26T00:27:54.526Z,97819.25
2023-04-26T00:30:20.933Z,97814.38
2023-04-26T00:32:47.337Z,97821.75
2023-04-26T00:35:13.767Z,97822.16
2023-04-26T00:37:40.208Z,97816.50
2023-04-26T00:40:06.716Z,97815.72
2023-04-26T00:42:33.060Z,97816.13
2023-04-26T00:44:59.384Z,97820.03
2023-04-26T00:47:25.820Z,97828.22
2023-04-26T00:49:52.220Z,97822.31
2023-04-26T00:52:18.541Z,97815.56
2023-04-26T00:54:44.981Z,97821.31
2023-04-26T00:57:11.295Z,97823.38
2023-04-26T00:59:37.860Z,97826.47
2023-04-26T01:02:04.221Z,97828.75
2023-04-26T01:04:30.561Z,97828.97
2023-04-26T01:06:57.104Z,97832.84
2023-04-26T01:09:23.358Z,97826.16
2023-04-26T01:11:49.648Z,97846.75
2023-04-26T01:14:16.071Z,97841.09
2023-04-26T01:16:42.625Z,97839.66
2023-04-26T01:19:08.984Z,97843.34
2023-04-26T01:21:35.745Z,97837.47
2023-04-26T01:24:02.077Z,97833.38
2023-04-26T01:26:28.434Z,97833.59
2023-04-26T01:28:55.143Z,97837.53
2023-04-26T01:31:21.610Z,97839.56
2023-04-26T01:33:48.140Z,97844.25
2023-04-26T01:36:17.775Z,97840.19
2023-04-26T01:38:44.286Z,97835.13
2023-04-26T01:41:10.663Z,97834.53
2023-04-26T01:43:37.219Z,97832.09
2023-04-26T01:46:03.657Z,97836.00
2023-04-26T01:48:29.982Z,97840.69
2023-04-26T01:50:56.306Z,97842.53
2023-04-26T01:53:22.627Z,97839.06
2023-04-26T01:55:48.990Z,97839.28
2023-04-26T01:58:15.465Z,97836.03
2023-04-26T02:00:41.788Z,97838.09
2023-04-26T02:03:08.240Z,97830.56
2023-04-26T02:05:34.626Z,97836.09
2023-04-26T02:08:01.112Z,97827.53
2023-04-26T02:10:27.588Z,97831.44
2023-04-26T02:12:54.079Z,97835.31
2023-04-26T02:15:23.690Z,97828.03
2023-04-26T02:17:50.103Z,97831.69
2023-04-26T02:20:16.471Z,97830.50
2023-04-26T02:22:42.861Z,97829.91
2023-04-26T02:25:09.437Z,97828.25
2023-04-26T02:27:35.748Z,97829.31
2023-04-26T02:30:02.071Z,97831.13
2023-04-26T02:32:28.470Z,97829.75
2023-04-26T02:34:54.900Z,97837.06
2023-04-26T02:37:21.214Z,97839.13
2023-04-26T02:39:47.713Z,97837.69
2023-04-26T02:42:14.069Z,97840.56
2023-04-26T02:44:40.506Z,97841.00
2023-04-26T02:47:07.101Z,97831.66
2023-04-26T02:49:33.707Z,97832.88
2023-04-26T02:51:59.992Z,97840.00
2023-04-26T02:54:26.304Z,97835.13
2023-04-26T02:56:52.749Z,97841.66
2023-04-26T02:59:19.187Z,97841.88
2023-04-26T03:01:45.644Z,97835.19
2023-04-26T03:04:12.612Z,97832.75
2023-04-26T03:06:39.122Z,97827.88
2023-04-26T03:09:05.586Z,97828.28
2023-04-26T03:11:32.156Z,97831.16
2023-04-26T03:13:58.483Z,97833.16
2023-04-26T03:16:24.731Z,97828.31
2023-04-26T03:18:51.230Z,97842.53
2023-04-26T03:21:17.899Z,97835.03
2023-04-26T03:23:44.323Z,97835.22
2023-04-26T03:26:10.874Z,97832.81
2023-04-26T03:28:38.711Z,97837.50
2023-04-26T03:31:05.033Z,97827.94
2023-04-26T03:33:31.625Z,97832.03
2023-04-26T03:35:58.142Z,97834.06
2023-04-26T03:38:24.437Z,97836.91
2023-04-26T03:40:50.901Z,97830.19
2023-04-26T03:43:17.340Z,97843.84
2023-04-26T03:45:44.008Z,97835.31
2023-04-26T03:48:10.359Z,97836.56
2023-04-26T03:50:36.756Z,97827.81
2023-04-26T03:53:06.215Z,97831.47
2023-04-26T03:55:32.876Z,97832.69
2023-04-26T03:57:59.220Z,97833.72
2023-04-26T04:00:25.453Z,97838.19
2023-04-26T04:02:51.773Z,97839.19
2023-04-26T04:05:18.601Z,97833.34
2023-04-26T04:07:48.107Z,97843.91
2023-04-26T04:10:14.483Z,97835.38
2023-04-26T04:12:41.488Z,97843.28
2023-04-26T04:15:16.875Z,97839.00
2023-04-26T04:17:43.545Z,97835.75
2023-04-26T04:20:13.704Z,97835.75
2023-04-26T04:22:40.789Z,97835.97
2023-04-26T04:25:16.499Z,97834.94
2023-04-26T04:27:42.953Z,97837.16
2023-04-26T04:30:12.066Z,97838.38
2023-04-26T04:35:28.903Z,97853.59
2023-04-26T04:37:55.656Z,97851.13
2023-04-26T04:40:22.252Z,97851.09
2023-04-26T04:42:48.607Z,97846.81
2023-04-26T04:45:15.305Z,97848.63
2023-04-26T04:47:41.585Z,97851.84
2023-04-26T04:50:07.963Z,97854.25
2023-04-26T04:52:34.544Z,97855.66
2023-04-26T04:55:00.935Z,97861.50
2023-04-26T04:57:27.342Z,97863.88
2023-04-26T04:59:53.810Z,97868.94
2023-04-26T05:02:20.245Z,97869.50
2023-04-26T05:04:46.834Z,97870.03
2023-04-26T05:07:13.294Z,97866.13
2023-04-26T05:09:39.658Z,97865.84
2023-04-26T05:12:06.288Z,97873.50
2023-04-26T05:14:32.771Z,97877.50
2023-04-26T05:16:59.117Z,97880.69
2023-04-26T05:19:25.415Z,97875.16
2023-04-26T05:21:51.979Z,97879.97
2023-04-26T05:24:18.606Z,97880.28
2023-04-26T05:26:45.282Z,97882.22
2023-04-26T05:29:11.708Z,97881.50
2023-04-26T05:31:38.261Z,97880.75
2023-04-26T05:34:04.631Z,97879.78
2023-04-26T05:36:31.063Z,97881.72
2023-04-26T05:38:57.449Z,97887.66
2023-04-26T05:41:23.734Z,97889.59
2023-04-26T05:43:50.088Z,97882.47
2023-04-26T05:46:16.662Z,97886.84
2023-04-26T05:48:43.050Z,97886.63
2023-04-26T05:51:09.400Z,97889.34
2023-04-26T05:53:35.790Z,97897.94
2023-04-26T05:56:02.214Z,97893.22
2023-04-26T05:58:28.560Z,97899.38
2023-04-26T06:00:55.168Z,97897.28
2023-04-26T06:03:21.937Z,97899.03
2023-04-26T06:05:48.706Z,97897.91
2023-04-26T06:08:15.088Z,97897.19
2023-04-26T06:10:41.483Z,97889.06
2023-04-26T06:13:08.041Z,97898.88
2023-04-26T06:15:34.427Z,97895.16
2023-04-26T06:18:00.921Z,97901.00
2023-04-26T06:20:27.313Z,97912.34
2023-04-26T06:22:53.858Z,97927.91
2023-04-26T06:25:23.391Z,97932.00
2023-04-26T06:27:49.923Z,97934.94
2023-04-26T06:30:16.289Z,97940.50
2023-04-26T06:32:42.809Z,97944.69
2023-04-26T06:35:12.197Z,97943.84
2023-04-26T06:37:45.107Z,97946.84
2023-04-26T06:40:16.527Z,97947.50
2023-04-26T06:42:43.250Z,97951.94
2023-04-26T06:45:09.619Z,97947.16
2023-04-26T06:47:36.155Z,97960.28
2023-04-26T06:50:03.274Z,97950.22
2023-04-26T06:52:29.935Z,97962.84
2023-04-26T06:54:57.554Z,97956.75
2023-04-26T06:57:24.334Z,97958.41
2023-04-26T06:59:50.738Z,97969.38
2023-04-26T07:02:18.001Z,97959.41
2023-04-26T07:04:47.628Z,97964.03
2023-04-26T07:07:14.154Z,97973.66
2023-04-26T07:09:40.488Z,97967.47
2023-04-26T07:12:07.013Z,97973.28
2023-04-26T07:14:33.434Z,97956.19
2023-04-26T07:16:59.764Z,97972.13
2023-04-26T07:19:26.102Z,97978.81
2023-04-26T07:21:52.539Z,97963.69
2023-04-26T07:24:18.844Z,97960.94
2023-04-26T07:26:45.182Z,97960.66
2023-04-26T07:29:11.784Z,97955.19
2023-04-26T07:31:38.203Z,97954.34
2023-04-26T07:34:04.601Z,97971.97
2023-04-26T07:36:30.907Z,97966.25
2023-04-26T07:38:57.243Z,97960.84
2023-04-26T07:41:24.008Z,97961.31
2023-04-26T07:43:50.634Z,97954.88
2023-04-26T07:46:17.324Z,97979.06
2023-04-26T07:48:51.289Z,97979.16
2023-04-26T07:51:17.760Z,97961.63
2023-04-26T07:53:44.172Z,97949.97
2023-04-26T07:56:10.641Z,97951.53
2023-04-26T07:58:37.113Z,97956.59
2023-04-26T08:01:03.433Z,97975.94
2023-04-26T08:03:30.172Z,97951.63
2023-04-26T08:05:56.763Z,97949.13
2023-04-26T08:08:23.635Z,97948.25
2023-04-26T08:10:50.195Z,97950.38
2023-04-26T08:13:16.606Z,97952.78
2023-04-26T08:15:42.984Z,97950.38
2023-04-26T08:18:09.374Z,97951.91
2023-04-26T08:20:35.701Z,97946.00
2023-04-26T08:23:02.098Z,97945.97
2023-04-26T08:25:30.681Z,97954.00
2023-04-26T08:27:58.335Z,97951.81
2023-04-26T08:30:30.666Z,97953.38
2023-04-26T08:32:57.126Z,97957.63
2023-04-26T08:35:23.474Z,97957.91
2023-04-26T08:37:50.146Z,97955.78
2023-04-26T08:40:16.463Z,97953.66
2023-04-26T08:42:42.936Z,97957.44
2023-04-26T08:45:09.289Z,97954.19
2023-04-26T08:47:35.619Z,97960.06
2023-04-26T08:50:02.009Z,97955.78
2023-04-26T08:52:28.307Z,97952.28
2023-04-26T08:55:04.705Z,97957.63
2023-04-26T08:57:30.985Z,97958.75
2023-04-26T08:59:57.444Z,97961.44
2023-04-26T09:02:25.250Z,97961.72
2023-04-26T09:04:51.947Z,97959.28
2023-04-26T09:07:18.361Z,97957.63
2023-04-26T09:09:44.666Z,97955.44
2023-04-26T09:12:10.985Z,97955.69
2023-04-26T09:14:37.370Z,97952.97
2023-04-26T09:17:03.655Z,97958.56
2023-04-26T09:19:30.039Z,97955.34
2023-04-26T09:21:56.384Z,97961.25
2023-04-26T09:24:23.238Z,97960.47
2023-04-26T09:26:49.634Z,97964.06
2023-04-26T09:29:15.920Z,97965.78
2023-04-26T09:31:42.319Z,97965.00
2023-04-26T09:34:08.832Z,97959.91
2023-04-26T09:36:35.504Z,97955.06
2023-04-26T09:39:03.318Z,97949.91
2023-04-26T09:41:29.619Z,97964.13
2023-04-26T09:43:55.970Z,97950.16
2023-04-26T09:46:22.439Z,97951.19
2023-04-26T09:48:54.392Z,97953.31
2023-04-26T09:51:23.297Z,97959.84
2023-04-26T09:53:49.703Z,97955.09
2023-04-26T09:56:16.147Z,97954.56
2023-04-26T09:58:42.502Z,97950.25
2023-04-26T10:01:08.920Z,97944.09
2023-04-26T10:03:35.481Z,97944.09
2023-04-26T10:06:01.984Z,97952.72
2023-04-26T10:08:28.325Z,97950.31
2023-04-26T10:10:54.637Z,97942.56
2023-04-26T10:13:20.986Z,97935.31
2023-04-26T10:15:47.273Z,97932.13
2023-04-26T10:18:13.598Z,97933.19
2023-04-26T10:20:39.987Z,97934.81
2023-04-26T10:23:06.472Z,97936.09
2023-04-26T10:25:33.048Z,97931.00
2023-04-26T10:27:59.469Z,97937.34
2023-04-26T10:30:26.457Z,97935.19
2023-04-26T10:32:53.315Z,97941.06
2023-04-26T10:35:19.798Z,97937.84
2023-04-26T10:37:46.192Z,97937.28
2023-04-26T10:40:13.012Z,97936.22
2023-04-26T10:42:41.487Z,97935.94
2023-04-26T10:45:08.043Z,97938.38
2023-04-26T10:47:34.578Z,97929.53
2023-04-26T10:50:05.597Z,97930.84
2023-04-26T10:52:32.521Z,97934.06
2023-04-26T10:54:59.040Z,97935.91
2023-04-26T10:57:25.377Z,97933.25
2023-04-26T10:59:54.591Z,97934.06
2023-04-26T11:02:21.444Z,97930.31
2023-04-26T11:04:47.917Z,97934.34
2023-04-26T11:07:14.228Z,97935.72
2023-04-26T11:09:40.510Z,97922.56
2023-04-26T11:12:06.925Z,97924.19
2023-04-26T11:14:33.305Z,97919.94
2023-04-26T11:16:59.730Z,97916.44
2023-04-26T11:19:29.803Z,97914.81
2023-04-26T11:21:56.287Z,97902.47
2023-04-26T11:24:22.750Z,97907.28
2023-04-26T11:26:49.121Z,97911.84
2023-04-26T11:29:15.479Z,97918.00
2023-04-26T11:31:41.814Z,97914.28
2023-04-26T11:34:08.513Z,97913.19
2023-04-26T11:36:34.902Z,97919.06
2023-04-26T11:39:01.191Z,97917.97
2023-04-26T11:41:27.511Z,97924.97
2023-04-26T11:43:53.833Z,97929.25
2023-04-26T11:46:20.362Z,97923.63
2023-04-26T11:48:46.687Z,97928.72
2023-04-26T11:51:13.203Z,97926.59
2023-04-26T11:53:39.695Z,97936.22
2023-04-26T11:56:06.065Z,97931.69
2023-04-26T11:58:33.523Z,97931.94
2023-04-26T12:01:00.008Z,97933.81
2023-04-26T12:03:26.389Z,97933.53
2023-04-26T12:05:54.109Z,97934.59
2023-04-26T12:08:20.571Z,97930.31
2023-04-26T12:10:47.061Z,97930.31
2023-04-26T12:13:13.477Z,97933.28
2023-04-26T12:15:40.066Z,97928.47
2023-04-26T12:18:06.686Z,97936.22
2023-04-26T12:20:33.606Z,97937.06
2023-04-26T12:23:01.007Z,97940.53
2023-04-26T12:25:27.375Z,97933.56
2023-04-26T12:27:53.665Z,97936.50
2023-04-26T12:30:20.144Z,97928.72
2023-04-26T12:32:46.610Z,97930.59
2023-04-26T12:35:13.041Z,97933.00
2023-04-26T12:37:39.476Z,97926.03
2023-04-26T12:40:05.911Z,97928.97
2023-04-26T12:42:32.259Z,97921.44
2023-04-26T12:44:58.748Z,97924.63
2023-04-26T12:47:25.083Z,97925.97
2023-04-26T12:49:51.387Z,97925.97
2023-04-26T12:52:17.889Z,97928.91
2023-04-26T12:54:59.876Z,97925.16
2023-04-26T12:57:33.120Z,97924.34
2023-04-26T13:00:01.375Z,97922.22
2023-04-26T13:02:27.925Z,97921.94
2023-04-26T13:04:55.487Z,97929.75
2023-04-26T13:07:22.164Z,97930.28
2023-04-26T13:09:48.576Z,97930.03
2023-04-26T13:12:14.896Z,97933.50
2023-04-26T13:14:41.306Z,97929.22
2023-04-26T13:17:07.656Z,97931.91
2023-04-26T13:19:33.990Z,97927.59
2023-04-26T13:22:00.305Z,97931.91
2023-04-26T13:24:26.694Z,97926.81
2023-04-26T13:26:53.080Z,97928.66
2023-04-26T13:29:19.528Z,97937.53
2023-04-26T13:31:49.221Z,97930.78
2023-04-26T13:34:15.652Z,97938.28
2023-04-26T13:36:41.991Z,97939.91
2023-04-26T13:39:08.285Z,97939.09
2023-04-26T13:41:34.560Z,97932.91
2023-04-26T13:44:02.388Z,97929.97
2023-04-26T13:46:28.874Z,97930.78
2023-04-26T13:48:55.220Z,97932.44
2023-04-26T13:51:21.624Z,97935.63
2023-04-26T13:54:08.918Z,97938.31
2023-04-26T13:56:35.512Z,97934.84
2023-04-26T13:59:04.736Z,97932.94
2023-04-26T14:04:21.017Z,97938.56
2023-04-26T14:06:48.008Z,97940.97
2023-04-26T14:09:14.689Z,97941.78
2023-04-26T14:11:40.984Z,97943.66
2023-04-26T14:14:07.377Z,97947.97
2023-04-26T14:16:33.700Z,97940.97
2023-04-26T14:19:00.042Z,97944.47
2023-04-26T14:21:26.449Z,97947.97
2023-04-26T14:23:52.861Z,97939.94
2023-04-26T14:26:25.462Z,97948.78
2023-04-26T14:28:51.769Z,97950.66
2023-04-26T14:31:18.205Z,97947.97
2023-04-26T14:33:44.599Z,97947.97
2023-04-26T14:36:10.981Z,97945.28
2023-04-26T14:38:37.283Z,97937.25
2023-04-26T14:41:03.542Z,97937.81
2023-04-26T14:43:30.009Z,97925.72
2023-04-26T14:45:58.609Z,97933.50
2023-04-26T14:48:25.168Z,97935.63
2023-04-26T14:50:51.814Z,97926.50
2023-04-26T14:53:18.166Z,97923.03
2023-04-26T14:55:44.473Z,97924.34
2023-04-26T14:58:11.093Z,97918.44
2023-04-26T15:00:37.451Z,97907.97
2023-04-26T15:03:03.866Z,97915.22
2023-04-26T15:05:30.432Z,97911.19
2023-04-26T15:07:56.767Z,97908.25
2023-04-26T15:10:23.126Z,97908.25
2023-04-26T15:12:51.961Z,97903.47
2023-04-26T15:15:18.278Z,97900.78
2023-04-26T15:17:45.234Z,97904.28
2023-04-26T15:20:11.639Z,97906.94
2023-04-26T15:22:38.845Z,97910.44
2023-04-26T15:25:05.382Z,97907.78
2023-04-26T15:27:31.964Z,97902.41
2023-04-26T15:29:58.365Z,97896.25
2023-04-26T15:32:24.716Z,97887.66
2023-04-26T15:34:51.095Z,97903.72
2023-04-26T15:37:20.725Z,97902.13
2023-04-26T15:39:50.307Z,97900.50
2023-04-26T15:42:16.637Z,97912.03
2023-04-26T15:44:42.982Z,97901.56
2023-04-26T15:47:09.719Z,97914.97
2023-04-26T15:49:36.005Z,97910.41
2023-04-26T15:52:02.507Z,97910.41
2023-04-26T15:54:28.962Z,97911.19
2023-04-26T15:56:55.368Z,97916.56
2023-04-26T15:59:22.863Z,97913.88
2023-04-26T16:01:49.454Z,97915.78
2023-04-26T16:04:16.236Z,97920.06
2023-04-26T16:06:42.626Z,97914.69
2023-04-26T16:09:23.469Z,97919.25
2023-04-26T16:11:51.314Z,97913.88
2023-04-26T16:14:17.630Z,97916.56
2023-04-26T16:16:44.375Z,97920.31
2023-04-26T16:19:10.805Z,97906.94
2023-04-26T16:21:37.085Z,97913.31
2023-04-26T16:24:03.634Z,97913.59
2023-04-26T16:26:30.066Z,97909.31
2023-04-26T16:28:56.425Z,97912.25
2023-04-26T16:31:22.802Z,97905.53
2023-04-26T16:33:49.144Z,97897.75
2023-04-26T16:36:18.508Z,97903.63
2023-04-26T16:38:44.838Z,97908.44
2023-04-26T16:41:11.390Z,97905.22
2023-04-26T16:43:37.858Z,97905.47
2023-04-26T16:46:04.480Z,97906.78
2023-04-26T16:48:31.229Z,97908.13
2023-04-26T16:50:57.709Z,97908.63
2023-04-26T16:53:24.044Z,97908.06
2023-04-26T16:55:50.457Z,97909.38
2023-04-26T16:58:17.140Z,97912.31
2023-04-26T17:00:43.538Z,97912.84
2023-04-26T17:03:09.859Z,97911.72
2023-04-26T17:05:36.316Z,97911.44
2023-04-26T17:08:03.032Z,97908.19
2023-04-26T17:10:29.547Z,97914.06
2023-04-26T17:12:55.918Z,97915.38
2023-04-26T17:15:22.373Z,97916.72
2023-04-26T17:17:48.864Z,97918.81
2023-04-26T17:20:15.516Z,97920.94
2023-04-26T17:22:42.040Z,97922.25
2023-04-26T17:25:08.722Z,97920.63
2023-04-26T17:27:35.053Z,97922.72
2023-04-26T17:30:01.615Z,97914.97
2023-04-26T17:32:28.045Z,97925.66
2023-04-26T17:34:54.476Z,97912.53
2023-04-26T17:37:20.847Z,97924.84
2023-04-26T17:39:47.179Z,97915.78
2023-04-26T17:42:13.868Z,97924.06
2023-04-26T17:44:40.662Z,97928.59
2023-04-26T17:47:07.269Z,97928.84
2023-04-26T17:49:35.795Z,97933.38
2023-04-26T17:52:02.129Z,97929.13
2023-04-26T17:54:28.509Z,97929.13
2023-04-26T17:56:54.903Z,97930.41
2023-04-26T17:59:21.326Z,97930.41
2023-04-26T18:01:47.744Z,97931.75
2023-04-26T18:04:14.339Z,97926.63
2023-04-26T18:06:40.838Z,97926.88
2023-04-26T18:09:07.208Z,97923.13
2023-04-26T18:11:36.565Z,97931.13
2023-04-26T18:14:02.978Z,97929.50
2023-04-26T18:16:29.416Z,97927.91
2023-04-26T18:18:55.950Z,97928.94
2023-04-26T18:21:25.468Z,97925.75
2023-04-26T18:23:52.474Z,97925.75
2023-04-26T18:26:18.762Z,97936.66
2023-04-26T18:28:45.045Z,97938.56
2023-04-26T18:31:11.378Z,97942.28
2023-04-26T18:33:40.637Z,97949.50
2023-04-26T18:36:06.945Z,97951.63
2023-04-26T18:38:35.287Z,97943.84
2023-04-26T18:41:01.645Z,97947.56
2023-04-26T18:43:28.016Z,97954.00
2023-04-26T18:45:59.744Z,97948.06
2023-04-26T18:48:29.441Z,97951.25
2023-04-26T18:50:55.726Z,97950.69
2023-04-26T18:53:22.332Z,97953.63
2023-04-26T18:55:48.913Z,97948.75
2023-04-26T18:58:15.264Z,97956.25
2023-04-26T19:00:41.815Z,97951.38
2023-04-26T19:03:08.642Z,97954.31
2023-04-26T19:05:35.167Z,97954.81
2023-04-26T19:08:01.541Z,97962.28
2023-04-26T19:10:27.885Z,97968.91
2023-04-26T19:12:54.172Z,97963.25
2023-04-26T19:15:20.522Z,97958.41
2023-04-26T19:17:46.889Z,97964.00
2023-04-26T19:20:13.314Z,97966.38
2023-04-26T19:22:39.926Z,97964.22
2023-04-26T19:25:06.351Z,97973.25
2023-04-26T19:27:32.640Z,97971.91
2023-04-26T19:29:59.050Z,97975.63
2023-04-26T19:32:25.618Z,97976.94
2023-04-26T19:34:51.984Z,97970.78
2023-04-26T19:37:18.376Z,97975.31
2023-04-26T19:39:44.926Z,97975.31
2023-04-26T19:42:11.408Z,97977.16
2023-04-26T19:44:37.759Z,97972.84
2023-04-26T19:47:06.620Z,97970.19
2023-04-26T19:49:33.471Z,97973.94
2023-04-26T19:52:00.556Z,97976.84
2023-04-26T19:54:26.898Z,97974.19
2023-04-26T19:56:53.190Z,97982.44
2023-04-26T19:59:19.575Z,97982.66
2023-04-26T20:01:46.144Z,97976.78
2023-04-26T20:04:12.729Z,97978.06
2023-04-26T20:06:39.119Z,97975.66
2023-04-26T20:09:06.181Z,97982.03
2023-04-26T20:11:32.725Z,97986.84
2023-04-26T20:13:59.046Z,97987.88
2023-04-26T20:16:25.597Z,97983.84
2023-04-26T20:18:52.042Z,97987.81
2023-04-26T20:21:18.350Z,97987.25
2023-04-26T20:23:44.644Z,97988.56
2023-04-26T20:26:10.993Z,97981.84
2023-04-26T20:28:39.362Z,97982.34
2023-04-26T20:31:06.291Z,97986.84
2023-04-26T20:33:32.703Z,97987.34
2023-04-26T20:35:59.424Z,97991.31
2023-04-26T20:38:25.862Z,97985.41
2023-04-26T20:40:52.380Z,97996.06
2023-04-26T20:43:18.832Z,97984.03
2023-04-26T20:45:45.294Z,97989.38
2023-04-26T20:48:11.928Z,97991.22
2023-04-26T20:50:38.324Z,97981.63
2023-04-26T20:53:04.662Z,97986.97
2023-04-26T20:55:30.970Z,97987.22
2023-04-26T20:57:57.300Z,97985.56
2023-04-26T21:00:23.624Z,97985.00
2023-04-26T21:02:50.214Z,97984.44
2023-04-26T21:05:16.557Z,97988.16
2023-04-26T21:07:42.885Z,97986.56
2023-04-26T21:10:09.236Z,97990.53
2023-04-26T21:12:35.946Z,97990.75
2023-04-26T21:15:02.552Z,97993.09
2023-04-26T21:17:28.925Z,97996.84
2023-04-26T21:19:55.542Z,97999.97
2023-04-26T21:22:22.005Z,97994.31
2023-04-26T21:24:48.863Z,97986.31
2023-04-26T21:27:15.488Z,97993.63
2023-04-26T21:29:42.133Z,97997.66
2023-04-26T21:32:08.571Z,97991.81
2023-04-26T21:34:34.868Z,97998.00
2023-04-26T21:37:02.196Z,97998.84
2023-04-26T21:39:29.494Z,98001.34
2023-04-26T21:41:55.923Z,98005.41
2023-04-26T21:44:22.745Z,98005.78
2023-04-26T21:46:52.351Z,98007.22
2023-04-26T21:49:29.552Z,98019.00
2023-04-26T21:52:00.554Z,98011.38
2023-04-26T21:54:37.457Z,98011.75
2023-04-26T21:57:04.414Z,98012.09
2023-04-26T21:59:30.817Z,98008.72
2023-04-26T22:01:57.284Z,98009.69
2023-04-26T22:04:23.839Z,98011.66
2023-04-26T22:06:50.349Z,98006.41
2023-04-26T22:09:17.806Z,98008.19
2023-04-26T22:11:44.256Z,98014.41
2023-04-26T22:14:10.562Z,98011.88
2023-04-26T22:16:40.529Z,98017.88
2023-04-26T22:19:07.110Z,98014.50
2023-04-26T22:21:33.724Z,98013.59
2023-04-26T22:24:00.085Z,98012.66
2023-04-26T22:26:26.424Z,98020.50
2023-04-26T22:28:52.731Z,98018.72
2023-04-26T22:31:19.028Z,98017.00
2023-04-26T22:33:45.462Z,98016.88
2023-04-26T22:36:12.657Z,98021.47
2023-04-26T22:38:39.132Z,98018.66
2023-04-26T22:41:05.467Z,98024.66
2023-04-26T22:43:31.827Z,98017.56
2023-04-26T22:45:58.322Z,98020.91
2023-04-26T22:48:24.757Z,98024.28
2023-04-26T22:50:51.098Z,98020.06
2023-04-26T22:53:17.479Z,98029.50
2023-04-26T22:55:43.891Z,98027.78
2023-04-26T22:58:10.196Z,98017.56
2023-04-26T23:00:36.538Z,98035.25
2023-04-26T23:03:03.742Z,98026.31
2023-04-26T23:05:30.208Z,98023.50
2023-04-26T23:07:56.624Z,98026.03
2023-04-26T23:10:22.911Z,98031.16
2023-04-26T23:12:49.389Z,98033.69
2023-04-26T23:15:18.894Z,98032.53
2023-04-26T23:17:45.352Z,98037.66
2023-04-26T23:20:12.268Z,98029.53
2023-04-26T23:22:38.701Z,98028.34
2023-04-26T23:25:05.141Z,98040.44
2023-04-26T23:27:31.498Z,98039.25
2023-04-26T23:29:58.103Z,98039.09
2023-04-26T23:32:24.704Z,98042.19
2023-04-26T23:34:51.036Z,98042.03
2023-04-26T23:37:17.318Z,98047.81
2023-04-26T23:39:43.696Z,98039.66
2023-04-26T23:42:10.063Z,98043.78
2023-04-26T23:44:36.710Z,98054.03
2023-04-26T23:47:06.335Z,98043.03
2023-04-26T23:49:32.727Z,98058.59
2023-04-26T23:51:59.045Z,98060.84
2023-04-26T23:54:25.385Z,98056.00
2023-04-26T23:56:51.692Z,98054.56
2023-04-26T23:59:18.064Z,98050.94
